Time;durP1;ratioP1;P1;durP2;ratioP2;P2;SDS_P1;SDS_P2;PMS_P1;PMS_P2;Temp;Humidity;BMP_temperature;BMP_pressure;BME280_temperature;BME280_humidity;BME280_pressure;Samples;Min_cycle;Max_cycle;Signal;HPM_P1;HPM_P2
2022/12/04 00:02:03;;;;;;;;;;;-0.30;99.90;;;;;;5088825;28;19928;-81
2022/12/04 00:04:29;;;;;;;;;;;-0.30;99.90;;;;;;5072546;28;19927;-80
2022/12/04 00:06:54;;;;;;;;;;;-0.30;99.90;;;;;;5055648;28;19978;-80
2022/12/04 00:09:20;;;;;;;;;;;-0.30;99.90;;;;;;5071819;28;19927;-80
2022/12/04 00:11:46;;;;;;;;;;;-0.30;99.90;;;;;;5072697;28;19927;-80
2022/12/04 00:14:11;;;;;;;;;;;-0.30;99.90;;;;;;5071790;28;19974;-80
2022/12/04 00:16:37;;;;;;;;;;;-0.30;99.90;;;;;;5058997;28;19928;-81
2022/12/04 00:19:03;;;;;;;;;;;-0.30;99.90;;;;;;5068576;28;20324;-80
2022/12/04 00:21:28;;;;;;;;;;;-0.30;99.90;;;;;;5072603;28;20153;-80
2022/12/04 00:23:54;;;;;;;;;;;-0.30;99.90;;;;;;5071908;28;19920;-81
2022/12/04 00:26:21;;;;;;;;;;;-0.30;99.90;;;;;;5060185;28;20020;-80
2022/12/04 00:28:46;;;;;;;;;;;-0.30;99.90;;;;;;5101383;28;19982;-80
2022/12/04 00:31:17;;;;;;;;;;;-0.30;99.90;;;;;;5072403;28;19920;-81
2022/12/04 00:33:42;;;;;;;;;;;-0.30;99.90;;;;;;5071900;28;19920;-80
2022/12/04 00:36:09;;;;;;;;;;;-0.30;99.90;;;;;;5066160;28;20282;-81
2022/12/04 00:38:35;;;;;;;;;;;-0.30;99.90;;;;;;5064463;28;20362;-80
2022/12/04 00:41:01;;;;;;;;;;;0.20;99.90;;;;;;5072313;28;19932;-80
2022/12/04 00:43:27;;;;;;;;;;;-0.40;99.90;;;;;;5071571;28;20311;-80
2022/12/04 00:45:52;;;;;;;;;;;-0.40;99.90;;;;;;5071281;28;19928;-80
2022/12/04 00:48:18;;;;;;;;;;;-0.30;99.90;;;;;;5055578;28;19924;-80
2022/12/04 00:50:44;;;;;;;;;;;-0.30;99.90;;;;;;5072432;28;19964;-81
2022/12/04 00:53:10;;;;;;;;;;;-0.30;99.90;;;;;;5069981;28;19928;-81
2022/12/04 00:55:38;;;;;;;;;;;0.00;99.90;;;;;;5071802;28;19924;-81
2022/12/04 00:58:06;;;;;;;;;;;-0.10;99.90;;;;;;5054954;28;19943;-81
2022/12/04 01:00:39;;;;;;;;;;;-0.10;99.90;;;;;;5071921;28;20269;-81
2022/12/04 01:03:05;;;;;;;;;;;-0.10;99.90;;;;;;5071106;28;19925;-81
2022/12/04 01:05:30;;;;;;;;;;;-0.20;99.90;;;;;;5071693;28;19982;-80
2022/12/04 01:07:56;;;;;;;;;;;-0.20;99.90;;;;;;5055550;28;19974;-80
2022/12/04 01:10:22;;;;;;;;;;;-0.30;99.90;;;;;;5071126;28;20400;-80
2022/12/04 01:12:48;;;;;;;;;;;-0.40;99.90;;;;;;5071054;28;19926;-80
2022/12/04 01:15:14;;;;;;;;;;;0.10;99.90;;;;;;5071826;28;19974;-80
2022/12/04 01:17:40;;;;;;;;;;;-0.50;99.90;;;;;;5055005;28;19960;-81
2022/12/04 01:20:05;;;;;;;;;;;-0.60;99.90;;;;;;5071450;28;19924;-81
2022/12/04 01:22:31;;;;;;;;;;;-0.60;99.90;;;;;;5070207;28;19927;-81
2022/12/04 01:24:57;;;;;;;;;;;-0.60;99.90;;;;;;5071407;28;20366;-80
2022/12/04 01:27:22;;;;;;;;;;;-0.70;99.90;;;;;;5054206;28;20023;-80
2022/12/04 01:29:48;;;;;;;;;;;-0.70;99.90;;;;;;5071351;28;19921;-80
2022/12/04 01:32:13;;;;;;;;;;;-0.70;99.90;;;;;;5085923;28;19966;-80
2022/12/04 01:34:39;;;;;;;;;;;-0.70;99.90;;;;;;5071362;28;19924;-81
2022/12/04 01:37:04;;;;;;;;;;;-0.70;99.90;;;;;;5055454;28;19924;-80
2022/12/04 01:39:30;;;;;;;;;;;-0.70;99.90;;;;;;5070972;28;19966;-80
2022/12/04 01:41:56;;;;;;;;;;;-0.70;99.90;;;;;;5071294;28;20062;-81
2022/12/04 01:44:23;;;;;;;;;;;0.00;99.90;;;;;;5070391;28;20296;-81
2022/12/04 01:46:52;;;;;;;;;;;-0.70;99.90;;;;;;5055628;28;19942;-81
2022/12/04 01:49:30;;;;;;;;;;;-0.60;99.90;;;;;;5069383;28;19920;-80
2022/12/04 01:51:58;;;;;;;;;;;-0.60;99.90;;;;;;5070892;28;19973;-80
2022/12/04 01:54:27;;;;;;;;;;;-0.40;99.90;;;;;;5070236;28;20285;-81
2022/12/04 01:57:12;;;;;;;;;;;-0.60;99.90;;;;;;5055263;28;19920;-80
2022/12/04 01:59:44;;;;;;;;;;;-0.60;99.90;;;;;;5068732;28;19925;-80
2022/12/04 02:02:11;;;;;;;;;;;-0.60;99.90;;;;;;5069906;28;19928;-80
2022/12/04 02:04:37;;;;;;;;;;;-0.50;99.90;;;;;;5070624;28;20389;-80
2022/12/04 02:07:03;;;;;;;;;;;-0.50;99.90;;;;;;5054255;28;19931;-81
2022/12/04 02:09:30;;;;;;;;;;;-0.50;99.90;;;;;;5069742;28;19920;-80
2022/12/04 02:12:05;;;;;;;;;;;-0.50;99.90;;;;;;5070187;28;19924;-80
2022/12/04 02:14:43;;;;;;;;;;;-0.50;99.90;;;;;;5070055;28;20270;-81
2022/12/04 02:17:11;;;;;;;;;;;-0.50;99.90;;;;;;5054510;28;19935;-79
2022/12/04 02:19:55;;;;;;;;;;;-0.50;99.90;;;;;;5070406;28;20000;-80
2022/12/04 02:22:39;;;;;;;;;;;-0.50;99.90;;;;;;5069768;28;19920;-80
2022/12/04 02:25:22;;;;;;;;;;;-0.50;99.90;;;;;;5070646;28;19964;-79
2022/12/04 02:28:08;;;;;;;;;;;-0.50;99.90;;;;;;5054268;28;19959;-80
2022/12/04 02:30:36;;;;;;;;;;;-0.50;99.90;;;;;;5070772;28;19924;-80
2022/12/04 02:33:06;;;;;;;;;;;-0.50;99.90;;;;;;5069222;28;20030;-80
2022/12/04 02:35:38;;;;;;;;;;;-0.50;99.90;;;;;;5069204;28;19921;-80
2022/12/04 02:38:10;;;;;;;;;;;-0.50;99.90;;;;;;5058078;28;20312;-80
2022/12/04 02:40:49;;;;;;;;;;;-0.50;99.90;;;;;;5076301;28;19970;-80
2022/12/04 02:43:23;;;;;;;;;;;-0.50;99.90;;;;;;5075239;28;20036;-80
2022/12/04 02:46:02;;;;;;;;;;;-0.40;99.90;;;;;;5110764;28;19928;-79
2022/12/04 02:48:30;;;;;;;;;;;-0.40;99.90;;;;;;5060892;28;19920;-80
2022/12/04 02:50:57;;;;;;;;;;;-0.40;99.90;;;;;;5076990;28;20015;-81
2022/12/04 02:53:26;;;;;;;;;;;-0.40;99.90;;;;;;5073585;28;20374;-80
2022/12/04 02:55:57;;;;;;;;;;;-0.40;99.90;;;;;;5076504;28;20003;-81
2022/12/04 02:58:38;;;;;;;;;;;-0.10;99.90;;;;;;5039563;28;20022;-80
2022/12/04 03:01:18;;;;;;;;;;;-0.40;99.90;;;;;;5089079;28;19920;-80
2022/12/04 03:03:48;;;;;;;;;;;-0.40;99.90;;;;;;5057516;28;20253;-79
2022/12/04 03:06:14;;;;;;;;;;;-0.40;99.90;;;;;;5067598;28;19959;-80
2022/12/04 03:08:42;;;;;;;;;;;-0.30;99.90;;;;;;5069447;28;19982;-80
2022/12/04 03:11:08;;;;;;;;;;;-0.40;99.90;;;;;;5075511;28;20281;-80
2022/12/04 03:13:45;;;;;;;;;;;-0.40;99.90;;;;;;5075322;28;19932;-80
2022/12/04 03:16:16;;;;;;;;;;;-0.50;99.90;;;;;;5068639;28;20454;-81
2022/12/04 03:18:45;;;;;;;;;;;-0.50;99.90;;;;;;5070560;28;19924;-80
2022/12/04 03:21:14;;;;;;;;;;;-0.50;99.90;;;;;;5076575;28;20316;-80
2022/12/04 03:23:47;;;;;;;;;;;-0.40;99.90;;;;;;5074942;28;20374;-80
2022/12/04 03:26:24;;;;;;;;;;;-0.50;99.90;;;;;;5067134;28;19920;-81
2022/12/04 03:28:59;;;;;;;;;;;-0.50;99.90;;;;;;5072162;28;19943;-80
2022/12/04 03:31:36;;;;;;;;;;;-0.50;99.90;;;;;;5076568;28;20377;-80
2022/12/04 03:34:02;;;;;;;;;;;-0.50;99.90;;;;;;5073397;28;20015;-80
2022/12/04 03:36:35;;;;;;;;;;;-0.50;99.90;;;;;;5064434;28;20066;-80
2022/12/04 03:39:06;;;;;;;;;;;-0.50;99.90;;;;;;5074544;28;19996;-80
2022/12/04 03:41:47;;;;;;;;;;;-0.50;99.90;;;;;;5076729;28;19920;-80
2022/12/04 03:44:12;;;;;;;;;;;-0.60;99.90;;;;;;5075428;28;19956;-79
2022/12/04 03:46:41;;;;;;;;;;;-0.50;99.90;;;;;;5062462;28;19964;-80
2022/12/04 03:49:12;;;;;;;;;;;-0.60;99.90;;;;;;5071833;28;19920;-80
2022/12/04 03:51:41;;;;;;;;;;;-0.60;99.90;;;;;;5073550;28;20056;-80
2022/12/04 03:54:09;;;;;;;;;;;-0.60;99.90;;;;;;5072040;28;19924;-80
2022/12/04 03:56:37;;;;;;;;;;;-0.50;99.90;;;;;;5059785;28;19920;-80
2022/12/04 03:59:08;;;;;;;;;;;-0.60;99.90;;;;;;5070789;28;19990;-80
2022/12/04 04:01:36;;;;;;;;;;;-0.60;99.90;;;;;;5073003;28;20282;-80
2022/12/04 04:04:03;;;;;;;;;;;-0.60;99.90;;;;;;5072010;28;20259;-80
2022/12/04 04:06:36;;;;;;;;;;;-0.60;99.90;;;;;;5059577;28;20410;-80
2022/12/04 04:09:06;;;;;;;;;;;-0.50;99.90;;;;;;5070181;28;19920;-80
2022/12/04 04:11:33;;;;;;;;;;;-0.60;99.90;;;;;;5073151;28;19924;-80
2022/12/04 04:25:23;;;;;;;;;;;-0.60;99.90;;;;;;5072850;28;19981;-80
2022/12/04 04:27:52;;;;;;;;;;;-0.60;99.90;;;;;;5055884;28;20401;-80
2022/12/04 04:30:18;;;;;;;;;;;-0.60;99.90;;;;;;5072492;28;20381;-80
2022/12/04 04:32:53;;;;;;;;;;;-0.60;99.90;;;;;;5069620;28;19960;-80
2022/12/04 04:35:24;;;;;;;;;;;-0.60;99.90;;;;;;5069879;28;19931;-80
2022/12/04 04:37:58;;;;;;;;;;;-0.60;99.90;;;;;;5050300;28;19924;-80
2022/12/04 04:40:49;;;;;;;;;;;-0.60;99.90;;;;;;5063744;28;20247;-80
2022/12/04 04:43:41;;;;;;;;;;;-0.60;99.90;;;;;;5050287;28;19979;-80
2022/12/04 04:46:10;;;;;;;;;;;-0.60;99.90;;;;;;5045147;28;20278;-81
2022/12/04 04:48:47;;;;;;;;;;;-0.60;99.90;;;;;;5043056;28;19927;-80
2022/12/04 04:51:13;;;;;;;;;;;-0.60;99.90;;;;;;5052744;28;19925;-80
2022/12/04 04:53:41;;;;;;;;;;;-0.70;99.90;;;;;;5050821;28;19921;-80
2022/12/04 04:56:07;;;;;;;;;;;-0.60;99.90;;;;;;5049341;28;19921;-81
2022/12/04 04:58:33;;;;;;;;;;;-0.10;99.90;;;;;;5040578;28;20082;-80
2022/12/04 05:01:00;;;;;;;;;;;-0.70;99.90;;;;;;5051691;28;19922;-81
2022/12/04 05:03:26;;;;;;;;;;;-0.70;99.90;;;;;;5065034;28;20335;-80
2022/12/04 05:05:52;;;;;;;;;;;-0.40;99.90;;;;;;5067296;28;19920;-80
2022/12/04 05:08:17;;;;;;;;;;;-0.70;99.90;;;;;;5052573;28;20348;-80
2022/12/04 05:10:43;;;;;;;;;;;-0.70;99.90;;;;;;5070644;28;20019;-80
2022/12/04 05:13:10;;;;;;;;;;;-0.70;99.90;;;;;;5069798;28;19928;-80
2022/12/04 05:15:36;;;;;;;;;;;-0.70;99.90;;;;;;5070113;28;19920;-80
2022/12/04 05:18:01;;;;;;;;;;;-0.60;99.90;;;;;;5054332;28;20377;-81
2022/12/04 05:20:27;;;;;;;;;;;-0.60;99.90;;;;;;5071361;28;19932;-79
2022/12/04 05:22:52;;;;;;;;;;;-0.60;99.90;;;;;;5070923;28;19924;-80
2022/12/04 05:25:18;;;;;;;;;;;-0.60;99.90;;;;;;5071115;28;19920;-80
2022/12/04 05:27:44;;;;;;;;;;;-0.60;99.90;;;;;;5055197;28;19925;-80
2022/12/04 05:30:10;;;;;;;;;;;-0.20;99.90;;;;;;5071350;28;19970;-80
2022/12/04 05:32:35;;;;;;;;;;;-0.60;99.90;;;;;;5070111;28;20104;-80
2022/12/04 05:35:01;;;;;;;;;;;-0.60;99.90;;;;;;5069757;28;19970;-80
2022/12/04 05:37:27;;;;;;;;;;;-0.60;99.90;;;;;;5056054;28;20437;-80
2022/12/04 05:39:52;;;;;;;;;;;-0.60;99.90;;;;;;5069520;28;19924;-80
2022/12/04 05:42:18;;;;;;;;;;;-0.60;99.90;;;;;;5069701;28;20382;-80
2022/12/04 05:44:43;;;;;;;;;;;-0.50;99.90;;;;;;5070305;28;19928;-80
2022/12/04 05:47:09;;;;;;;;;;;-0.50;99.90;;;;;;5050784;28;20335;-80
2022/12/04 05:49:35;;;;;;;;;;;-0.50;99.90;;;;;;5067306;28;20003;-80
2022/12/04 05:52:01;;;;;;;;;;;-0.90;99.90;;;;;;5061699;28;19921;-80
2022/12/04 05:54:26;;;;;;;;;;;-0.50;99.90;;;;;;5049146;28;19925;-80
2022/12/04 05:56:52;;;;;;;;;;;-0.50;99.90;;;;;;5063468;28;19933;-80
2022/12/04 05:59:18;;;;;;;;;;;-0.50;99.90;;;;;;5066022;28;20274;-80
2022/12/04 06:01:44;;;;;;;;;;;-0.50;99.90;;;;;;5101963;28;20184;-80
2022/12/04 06:04:10;;;;;;;;;;;-0.50;99.90;;;;;;5064969;28;20274;-80
2022/12/04 06:06:36;;;;;;;;;;;-0.50;99.90;;;;;;5049947;28;20408;-80
2022/12/04 06:09:02;;;;;;;;;;;-0.10;99.90;;;;;;5055696;28;20357;-80
2022/12/04 06:11:29;;;;;;;;;;;-0.40;99.90;;;;;;5060496;28;19998;-80
2022/12/04 06:13:55;;;;;;;;;;;-0.40;99.90;;;;;;5067693;28;20378;-81
2022/12/04 06:16:22;;;;;;;;;;;-0.40;99.90;;;;;;5059654;28;19920;-80
2022/12/04 06:18:48;;;;;;;;;;;-0.40;99.90;;;;;;5066352;28;19920;-80
2022/12/04 06:21:14;;;;;;;;;;;-0.40;99.90;;;;;;5070300;28;19921;-80
2022/12/04 06:23:39;;;;;;;;;;;-0.40;99.90;;;;;;5102127;28;20278;-80
2022/12/04 06:26:06;;;;;;;;;;;-0.30;99.90;;;;;;5070211;28;19931;-80
2022/12/04 06:28:32;;;;;;;;;;;-0.30;99.90;;;;;;5056541;28;19927;-80
2022/12/04 06:31:01;;;;;;;;;;;-0.30;99.90;;;;;;5070271;28;19921;-80
2022/12/04 06:33:27;;;;;;;;;;;-0.30;99.90;;;;;;5069753;28;19977;-81
2022/12/04 06:35:56;;;;;;;;;;;-0.30;99.90;;;;;;5085998;28;19928;-80
2022/12/04 06:38:22;;;;;;;;;;;-0.30;99.90;;;;;;5054753;28;19978;-81
2022/12/04 06:40:47;;;;;;;;;;;-0.30;99.90;;;;;;5070519;28;19920;-80
2022/12/04 06:43:13;;;;;;;;;;;-0.30;99.90;;;;;;5069609;28;19985;-81
2022/12/04 06:45:39;;;;;;;;;;;-0.30;99.90;;;;;;5070251;28;20322;-80
2022/12/04 06:48:04;;;;;;;;;;;-0.20;99.90;;;;;;5054181;28;19927;-80
2022/12/04 06:50:30;;;;;;;;;;;-0.30;99.90;;;;;;5069455;28;19920;-80
2022/12/04 06:52:55;;;;;;;;;;;-0.30;99.90;;;;;;5069671;28;20057;-80
2022/12/04 06:55:21;;;;;;;;;;;-0.20;99.90;;;;;;5070236;28;19925;-80
2022/12/04 06:57:46;;;;;;;;;;;-0.20;99.90;;;;;;5054272;28;19920;-80
2022/12/04 07:00:12;;;;;;;;;;;-0.20;99.90;;;;;;5070417;28;20032;-80
2022/12/04 07:02:38;;;;;;;;;;;-0.20;99.90;;;;;;5068952;28;19929;-81
2022/12/04 07:05:03;;;;;;;;;;;-0.20;99.90;;;;;;5069281;28;20317;-80
2022/12/04 07:07:29;;;;;;;;;;;-0.20;99.90;;;;;;5053749;28;19934;-80
2022/12/04 07:09:54;;;;;;;;;;;-0.20;99.90;;;;;;5066433;28;19920;-80
2022/12/04 07:12:20;;;;;;;;;;;-0.20;99.90;;;;;;5068735;28;19921;-80
2022/12/04 07:14:45;;;;;;;;;;;-0.20;99.90;;;;;;5069673;28;19946;-80
2022/12/04 07:17:11;;;;;;;;;;;-0.20;99.90;;;;;;5053581;28;19946;-80
2022/12/04 07:19:37;;;;;;;;;;;-0.20;99.90;;;;;;5068520;28;19920;-80
2022/12/04 07:22:02;;;;;;;;;;;-0.20;99.90;;;;;;5069735;28;19971;-81
2022/12/04 07:24:28;;;;;;;;;;;-0.20;99.90;;;;;;5101427;28;19920;-80
2022/12/04 07:26:54;;;;;;;;;;;-0.20;99.90;;;;;;5056386;28;20313;-80
2022/12/04 07:29:19;;;;;;;;;;;-0.20;99.90;;;;;;5072104;28;19971;-80
2022/12/04 07:31:45;;;;;;;;;;;-0.10;99.90;;;;;;5070717;28;19924;-80
2022/12/04 07:34:10;;;;;;;;;;;-0.20;99.90;;;;;;5070827;28;20326;-80
2022/12/04 07:36:37;;;;;;;;;;;-0.20;99.90;;;;;;5056125;28;20358;-80
2022/12/04 07:39:03;;;;;;;;;;;-0.10;99.90;;;;;;5069840;28;19959;-80
2022/12/04 07:41:28;;;;;;;;;;;-0.10;99.90;;;;;;5071783;28;19955;-80
2022/12/04 07:43:54;;;;;;;;;;;-0.10;99.90;;;;;;5069203;28;19928;-80
2022/12/04 07:46:21;;;;;;;;;;;-0.10;99.90;;;;;;5060913;28;19924;-80
2022/12/04 07:48:46;;;;;;;;;;;-0.10;99.90;;;;;;5098388;28;20266;-80
2022/12/04 07:51:20;;;;;;;;;;;0.00;99.90;;;;;;5071343;28;20239;-80
2022/12/04 07:53:45;;;;;;;;;;;0.00;99.90;;;;;;5070986;28;19928;-80
2022/12/04 07:56:12;;;;;;;;;;;0.00;99.90;;;;;;5063019;28;19934;-81
2022/12/04 07:58:37;;;;;;;;;;;0.00;99.90;;;;;;5063610;28;19928;-80
2022/12/04 08:01:13;;;;;;;;;;;0.00;99.90;;;;;;5071177;28;19928;-80
2022/12/04 08:03:39;;;;;;;;;;;0.00;99.90;;;;;;5071220;28;19920;-80
2022/12/04 08:06:05;;;;;;;;;;;0.10;99.90;;;;;;5070848;28;19925;-81
2022/12/04 08:08:31;;;;;;;;;;;0.10;99.90;;;;;;5054732;28;19920;-80
2022/12/04 08:10:56;;;;;;;;;;;0.10;99.90;;;;;;5071299;28;19921;-80
2022/12/04 08:13:22;;;;;;;;;;;0.60;99.90;;;;;;5070759;28;19932;-80
2022/12/04 08:15:47;;;;;;;;;;;0.10;99.90;;;;;;5071231;28;19921;-80
2022/12/04 08:18:13;;;;;;;;;;;0.20;99.90;;;;;;5054436;28;20362;-80
2022/12/04 08:20:38;;;;;;;;;;;0.20;99.90;;;;;;5070604;28;19927;-80
2022/12/04 08:23:04;;;;;;;;;;;0.20;99.90;;;;;;5070070;28;19924;-80
2022/12/04 08:25:30;;;;;;;;;;;0.30;99.90;;;;;;5070360;28;19921;-80
2022/12/04 08:27:55;;;;;;;;;;;0.20;99.90;;;;;;5054842;28;19939;-80
2022/12/04 08:30:21;;;;;;;;;;;0.20;99.90;;;;;;5071202;28;19973;-80
2022/12/04 08:32:47;;;;;;;;;;;0.20;99.90;;;;;;5070177;28;19920;-81
2022/12/04 08:35:12;;;;;;;;;;;0.20;99.90;;;;;;5085253;28;20007;-81
2022/12/04 08:37:38;;;;;;;;;;;0.50;99.90;;;;;;5055267;28;19920;-80
2022/12/04 08:40:04;;;;;;;;;;;0.30;99.90;;;;;;5070204;28;19932;-80
2022/12/04 08:42:29;;;;;;;;;;;0.30;99.90;;;;;;5066558;28;19924;-80
2022/12/04 08:44:55;;;;;;;;;;;0.30;99.90;;;;;;5068610;28;19920;-80
2022/12/04 08:47:22;;;;;;;;;;;0.50;99.90;;;;;;5052851;28;20292;-80
2022/12/04 08:49:48;;;;;;;;;;;0.40;99.90;;;;;;5070958;28;20434;-80
2022/12/04 08:52:13;;;;;;;;;;;0.40;99.90;;;;;;5085595;28;19968;-80
2022/12/04 08:54:39;;;;;;;;;;;0.40;99.90;;;;;;5070842;28;19924;-80
2022/12/04 08:57:04;;;;;;;;;;;0.40;99.90;;;;;;5053203;28;19931;-79
2022/12/04 08:59:30;;;;;;;;;;;0.50;99.90;;;;;;5070161;28;19936;-81
2022/12/04 09:01:55;;;;;;;;;;;0.50;99.90;;;;;;5070384;28;19942;-81
2022/12/04 09:04:21;;;;;;;;;;;0.50;99.90;;;;;;5070182;28;20350;-80
2022/12/04 09:06:46;;;;;;;;;;;0.50;99.90;;;;;;5056339;28;19933;-81
2022/12/04 09:09:12;;;;;;;;;;;0.60;99.90;;;;;;5070704;28;19920;-80
2022/12/04 09:11:38;;;;;;;;;;;0.60;99.90;;;;;;5071098;28;19928;-80
2022/12/04 09:14:03;;;;;;;;;;;0.60;99.90;;;;;;5070319;28;20374;-80
2022/12/04 09:16:29;;;;;;;;;;;0.80;99.90;;;;;;5058094;28;20317;-80
2022/12/04 09:18:55;;;;;;;;;;;0.70;99.90;;;;;;5066995;28;19931;-81
2022/12/04 09:21:22;;;;;;;;;;;0.70;99.90;;;;;;5070004;28;19920;-80
2022/12/04 09:23:47;;;;;;;;;;;0.70;99.90;;;;;;5070727;28;19920;-80
2022/12/04 09:26:20;;;;;;;;;;;0.80;99.90;;;;;;5059804;28;19939;-81
2022/12/04 09:28:46;;;;;;;;;;;0.70;99.90;;;;;;5057799;28;20044;-81
2022/12/04 09:31:12;;;;;;;;;;;0.80;99.90;;;;;;5064966;28;20008;-81
2022/12/04 09:33:37;;;;;;;;;;;0.80;99.90;;;;;;5065004;28;19931;-81
2022/12/04 09:36:05;;;;;;;;;;;1.30;99.90;;;;;;5067365;28;19929;-80
2022/12/04 09:38:31;;;;;;;;;;;0.90;99.90;;;;;;5051664;28;20008;-80
2022/12/04 09:41:15;;;;;;;;;;;0.90;99.90;;;;;;5067566;28;19995;-80
2022/12/04 09:43:46;;;;;;;;;;;0.90;99.90;;;;;;5066402;28;20471;-80
2022/12/04 09:46:17;;;;;;;;;;;0.90;99.90;;;;;;5047993;28;20023;-81
2022/12/04 09:48:44;;;;;;;;;;;1.00;99.90;;;;;;5061112;28;19951;-80
2022/12/04 09:51:17;;;;;;;;;;;1.40;99.90;;;;;;5052213;28;19928;-81
2022/12/04 09:53:55;;;;;;;;;;;1.10;99.90;;;;;;5055165;28;20325;-80
2022/12/04 09:56:22;;;;;;;;;;;1.10;99.90;;;;;;5057171;28;20011;-80
2022/12/04 09:58:53;;;;;;;;;;;1.20;99.90;;;;;;5062281;28;19927;-80
2022/12/04 10:01:24;;;;;;;;;;;1.20;99.90;;;;;;5067336;28;19932;-81
2022/12/04 10:03:51;;;;;;;;;;;1.20;99.90;;;;;;5066850;28;20392;-80
2022/12/04 10:06:16;;;;;;;;;;;1.20;99.90;;;;;;5056433;28;19975;-81
2022/12/04 10:08:48;;;;;;;;;;;1.30;99.90;;;;;;5041950;28;19963;-80
2022/12/04 10:11:35;;;;;;;;;;;1.40;99.90;;;;;;5051698;28;19932;-80
2022/12/04 10:14:08;;;;;;;;;;;1.60;99.90;;;;;;5050870;28;19924;-81
2022/12/04 10:16:52;;;;;;;;;;;1.60;99.90;;;;;;5043718;28;20309;-80
2022/12/04 10:19:27;;;;;;;;;;;1.70;99.90;;;;;;5055808;28;19924;-81
2022/12/04 10:21:56;;;;;;;;;;;1.70;99.90;;;;;;5062283;28;19925;-80
2022/12/04 10:24:25;;;;;;;;;;;1.80;99.90;;;;;;5050084;28;20358;-80
2022/12/04 10:26:53;;;;;;;;;;;1.70;99.90;;;;;;5033853;28;19925;-80
2022/12/04 10:29:31;;;;;;;;;;;1.80;99.90;;;;;;5058414;28;20015;-81
2022/12/04 10:32:00;;;;;;;;;;;1.80;99.90;;;;;;5064770;28;19927;-80
2022/12/04 10:34:27;;;;;;;;;;;1.80;99.90;;;;;;5046948;28;19925;-80
2022/12/04 10:36:54;;;;;;;;;;;1.80;99.90;;;;;;5040796;28;19929;-80
2022/12/04 10:39:23;;;;;;;;;;;1.80;99.90;;;;;;5058125;28;19931;-81
2022/12/04 10:42:09;;;;;;;;;;;1.80;99.90;;;;;;5057761;28;19925;-80
2022/12/04 10:44:35;;;;;;;;;;;1.80;99.90;;;;;;5045698;28;19924;-81
2022/12/04 10:47:01;;;;;;;;;;;1.80;99.90;;;;;;5031434;28;20372;-80
2022/12/04 10:49:28;;;;;;;;;;;1.80;99.90;;;;;;5046380;28;19921;-79
2022/12/04 10:51:54;;;;;;;;;;;1.90;99.90;;;;;;5047100;28;20544;-81
2022/12/04 10:54:20;;;;;;;;;;;1.90;99.90;;;;;;5049258;28;20009;-80
2022/12/04 10:57:05;;;;;;;;;;;1.90;99.90;;;;;;5039479;28;20391;-81
2022/12/04 10:59:31;;;;;;;;;;;1.90;99.90;;;;;;5048450;28;20224;-80
2022/12/04 11:02:03;;;;;;;;;;;2.00;99.90;;;;;;5062902;28;20019;-80
2022/12/04 11:04:29;;;;;;;;;;;2.00;99.90;;;;;;5055563;28;19920;-80
2022/12/04 11:07:21;;;;;;;;;;;2.20;99.90;;;;;;5043707;28;19921;-80
2022/12/04 11:10:16;;;;;;;;;;;2.00;99.90;;;;;;5031698;28;19970;-80
2022/12/04 11:12:52;;;;;;;;;;;2.10;99.90;;;;;;5063128;28;19943;-80
2022/12/04 11:15:17;;;;;;;;;;;2.00;99.90;;;;;;5065276;28;19931;-80
2022/12/04 11:17:43;;;;;;;;;;;2.00;99.90;;;;;;5052188;28;20320;-80
2022/12/04 11:20:17;;;;;;;;;;;2.00;99.90;;;;;;5070180;28;19925;-80
2022/12/04 11:23:01;;;;;;;;;;;2.00;99.90;;;;;;5069140;28;19947;-80
2022/12/04 11:25:29;;;;;;;;;;;2.00;99.90;;;;;;5068952;28;20382;-81
2022/12/04 11:27:59;;;;;;;;;;;2.00;99.90;;;;;;5043118;28;20297;-81
2022/12/04 11:30:30;;;;;;;;;;;2.10;99.90;;;;;;5068908;28;20366;-80
2022/12/04 11:32:56;;;;;;;;;;;2.10;99.90;;;;;;5070011;28;19931;-81
2022/12/04 11:35:26;;;;;;;;;;;2.00;99.90;;;;;;5071649;28;19921;-81
2022/12/04 11:37:53;;;;;;;;;;;2.00;99.90;;;;;;5054935;28;19921;-81
2022/12/04 11:40:19;;;;;;;;;;;2.00;99.90;;;;;;5072644;28;19921;-80
2022/12/04 11:42:56;;;;;;;;;;;2.10;99.90;;;;;;5095571;28;20266;-80
2022/12/04 11:45:22;;;;;;;;;;;2.10;99.90;;;;;;5071882;28;19966;-81
2022/12/04 11:47:55;;;;;;;;;;;2.10;99.90;;;;;;5054887;28;19956;-81
2022/12/04 11:50:38;;;;;;;;;;;2.00;99.90;;;;;;5072112;28;19925;-80
2022/12/04 11:53:15;;;;;;;;;;;2.00;99.90;;;;;;5100102;28;20445;-80
2022/12/04 11:56:02;;;;;;;;;;;2.00;99.90;;;;;;5068374;28;20044;-81
2022/12/04 11:58:28;;;;;;;;;;;2.00;99.90;;;;;;5051212;28;20374;-80
2022/12/04 12:01:12;;;;;;;;;;;2.00;99.90;;;;;;5071372;28;19920;-80
2022/12/04 12:03:43;;;;;;;;;;;2.00;99.90;;;;;;5071498;28;19946;-80
2022/12/04 12:06:11;;;;;;;;;;;2.00;99.90;;;;;;5066146;28;20015;-81
2022/12/04 12:08:55;;;;;;;;;;;1.90;99.90;;;;;;5064317;28;19928;-81
2022/12/04 12:11:28;;;;;;;;;;;1.90;99.90;;;;;;5069605;28;19921;-80
2022/12/04 12:14:18;;;;;;;;;;;2.00;99.90;;;;;;5069360;28;19932;-80
2022/12/04 12:16:47;;;;;;;;;;;1.90;99.90;;;;;;5056309;28;19997;-81
2022/12/04 12:19:19;;;;;;;;;;;2.00;99.90;;;;;;5069752;28;19947;-80
2022/12/04 12:21:59;;;;;;;;;;;2.00;99.90;;;;;;5071905;28;20270;-80
2022/12/04 12:24:48;;;;;;;;;;;2.00;99.90;;;;;;5069405;28;20311;-80
2022/12/04 12:27:19;;;;;;;;;;;2.00;99.90;;;;;;5063014;28;19985;-81
2022/12/04 12:30:03;;;;;;;;;;;2.00;99.90;;;;;;5071491;28;19947;-80
2022/12/04 12:32:32;;;;;;;;;;;2.00;99.90;;;;;;5071264;28;19955;-80
2022/12/04 12:34:58;;;;;;;;;;;2.00;99.90;;;;;;5072636;28;20365;-80
2022/12/04 12:37:35;;;;;;;;;;;2.50;99.90;;;;;;5057091;28;19928;-80
2022/12/04 12:40:22;;;;;;;;;;;2.00;99.90;;;;;;5072332;28;19971;-80
2022/12/04 12:42:51;;;;;;;;;;;2.00;99.90;;;;;;5071183;28;20058;-81
2022/12/04 12:45:25;;;;;;;;;;;2.00;99.90;;;;;;5072707;28;19931;-80
2022/12/04 12:47:53;;;;;;;;;;;2.10;99.90;;;;;;5054988;28;20015;-80
2022/12/04 12:50:31;;;;;;;;;;;2.10;99.90;;;;;;5071948;28;19931;-80
2022/12/04 12:52:58;;;;;;;;;;;2.10;99.90;;;;;;5071552;28;19960;-80
2022/12/04 12:55:31;;;;;;;;;;;2.10;99.90;;;;;;5070077;28;19936;-80
2022/12/04 12:58:06;;;;;;;;;;;2.10;99.90;;;;;;5055271;28;20390;-80
2022/12/04 13:00:37;;;;;;;;;;;2.10;99.90;;;;;;5070888;28;19925;-80
2022/12/04 13:03:22;;;;;;;;;;;2.10;99.90;;;;;;5070648;28;19929;-80
2022/12/04 13:05:50;;;;;;;;;;;2.20;99.90;;;;;;5072091;28;19928;-81
2022/12/04 13:08:20;;;;;;;;;;;2.20;99.90;;;;;;5055327;28;19928;-80
2022/12/04 13:11:06;;;;;;;;;;;2.10;99.90;;;;;;5071715;28;19974;-80
2022/12/04 13:13:34;;;;;;;;;;;2.20;99.90;;;;;;5070680;28;20271;-80
2022/12/04 13:16:06;;;;;;;;;;;2.20;99.90;;;;;;5071329;28;19935;-80
2022/12/04 13:18:47;;;;;;;;;;;2.20;99.90;;;;;;5039301;28;19924;-80
2022/12/04 13:21:25;;;;;;;;;;;2.20;99.90;;;;;;5071302;28;19929;-80
2022/12/04 13:24:09;;;;;;;;;;;2.20;99.90;;;;;;5070231;28;19925;-80
2022/12/04 13:26:43;;;;;;;;;;;2.20;99.90;;;;;;5057515;28;19928;-80
2022/12/04 13:29:14;;;;;;;;;;;2.20;99.90;;;;;;5069068;28;20329;-80
2022/12/04 13:31:48;;;;;;;;;;;2.20;99.90;;;;;;5071504;28;19978;-80
2022/12/04 13:34:32;;;;;;;;;;;2.20;99.90;;;;;;5069025;28;19940;-80
2022/12/04 13:37:00;;;;;;;;;;;2.20;99.90;;;;;;5036069;28;20383;-80
2022/12/04 13:39:52;;;;;;;;;;;2.30;99.90;;;;;;5050956;28;19925;-81
2022/12/04 13:42:22;;;;;;;;;;;2.20;99.90;;;;;;5044417;28;19931;-81
2022/12/04 13:44:52;;;;;;;;;;;2.30;99.90;;;;;;5051171;28;19951;-79
2022/12/04 13:47:25;;;;;;;;;;;2.30;99.90;;;;;;5050560;28;19940;-80
2022/12/04 13:49:51;;;;;;;;;;;2.30;99.90;;;;;;5049558;28;19960;-80
2022/12/04 13:52:22;;;;;;;;;;;2.30;99.90;;;;;;5065806;28;19924;-80
2022/12/04 13:54:57;;;;;;;;;;;2.30;99.90;;;;;;5054227;28;20136;-80
2022/12/04 13:57:23;;;;;;;;;;;2.30;99.90;;;;;;5054619;28;20014;-80
2022/12/04 13:59:48;;;;;;;;;;;2.40;99.90;;;;;;5070563;28;20070;-80
2022/12/04 14:02:21;;;;;;;;;;;2.40;99.90;;;;;;5067298;28;19925;-80
2022/12/04 14:04:50;;;;;;;;;;;2.40;99.90;;;;;;5066552;28;19928;-80
2022/12/04 14:07:27;;;;;;;;;;;2.40;99.90;;;;;;5047597;28;19952;-80
2022/12/04 14:09:54;;;;;;;;;;;2.40;99.90;;;;;;5055425;28;20421;-80
2022/12/04 14:12:24;;;;;;;;;;;2.40;99.90;;;;;;5062773;28;19928;-80
2022/12/04 14:14:53;;;;;;;;;;;2.40;99.90;;;;;;5102976;28;19932;-79
2022/12/04 14:17:22;;;;;;;;;;;2.40;99.90;;;;;;5053580;28;20350;-81
2022/12/04 14:19:56;;;;;;;;;;;2.50;99.90;;;;;;5069935;28;19931;-80
2022/12/04 14:22:42;;;;;;;;;;;2.40;99.90;;;;;;5069788;28;20146;-78
2022/12/04 14:25:11;;;;;;;;;;;2.40;99.90;;;;;;5068534;28;20389;-80
2022/12/04 14:27:39;;;;;;;;;;;2.40;99.90;;;;;;5053719;28;19924;-80
2022/12/04 14:30:14;;;;;;;;;;;2.50;99.90;;;;;;5069939;28;20374;-80
2022/12/04 14:32:41;;;;;;;;;;;2.40;99.90;;;;;;5069558;28;19929;-80
2022/12/04 14:35:18;;;;;;;;;;;2.90;99.90;;;;;;5070087;28;20290;-80
2022/12/04 14:38:03;;;;;;;;;;;2.40;99.90;;;;;;5054705;28;19936;-79
2022/12/04 14:40:46;;;;;;;;;;;2.40;99.90;;;;;;5069885;28;20382;-79
2022/12/04 14:43:15;;;;;;;;;;;2.40;99.90;;;;;;5085035;28;19974;-80
2022/12/04 14:45:46;;;;;;;;;;;2.40;99.90;;;;;;5070610;28;20303;-80
2022/12/04 14:48:31;;;;;;;;;;;2.40;99.90;;;;;;5053483;28;20324;-80
2022/12/04 14:51:13;;;;;;;;;;;2.30;99.90;;;;;;5070059;28;19931;-80